Time;durP1;ratioP1;P1;durP2;ratioP2;P2;SDS_P1;SDS_P2;PMS_P1;PMS_P2;Temp;Humidity;BMP_temperature;BMP_pressure;BME280_temperature;BME280_humidity;BME280_pressure;Samples;Min_cycle;Max_cycle;Signal;HPM_P1;HPM_P2
2023/05/24 00:00:52;;;;;;;18.95;4.85;;;;;;;;;;5026218;28;20018;-73
2023/05/24 00:03:18;;;;;;;14.18;4.47;;;;;;;;;;5015739;28;20408;-73
2023/05/24 00:05:45;;;;;;;17.70;5.22;;;;;;;;;;5027190;28;20026;-76
2023/05/24 00:08:11;;;;;;;17.90;5.30;;;;;;;;;;5020330;28;20068;-74
2023/05/24 00:10:37;;;;;;;12.88;3.90;;;;;;;;;;5019674;28;20030;-73
2023/05/24 00:13:03;;;;;;;15.35;4.10;;;;;;;;;;5027440;28;20033;-74
2023/05/24 00:15:29;;;;;;;19.60;4.47;;;;;;;;;;5015880;28;20014;-76
2023/05/24 00:17:55;;;;;;;14.10;3.97;;;;;;;;;;5024964;28;20507;-76
2023/05/24 00:20:21;;;;;;;18.63;5.20;;;;;;;;;;5030597;28;20025;-75
2023/05/24 00:22:47;;;;;;;16.77;4.75;;;;;;;;;;5018496;28;20026;-75
2023/05/24 00:25:13;;;;;;;19.80;4.07;;;;;;;;;;5012182;28;20566;-76
2023/05/24 00:27:39;;;;;;;15.77;4.57;;;;;;;;;;5020582;28;20040;-75
2023/05/24 00:30:06;;;;;;;13.52;4.22;;;;;;;;;;5006326;28;20481;-75
2023/05/24 00:32:32;;;;;;;19.70;4.60;;;;;;;;;;5023456;28;20141;-76
2023/05/24 00:34:58;;;;;;;13.88;4.32;;;;;;;;;;5016709;28;20080;-75
2023/05/24 00:37:25;;;;;;;11.95;4.22;;;;;;;;;;5027540;28;20030;-75
2023/05/24 00:39:51;;;;;;;16.67;4.53;;;;;;;;;;5017712;28;20097;-75
2023/05/24 00:42:17;;;;;;;18.40;4.15;;;;;;;;;;5031627;28;20091;-74
2023/05/24 00:44:43;;;;;;;14.15;4.10;;;;;;;;;;5018176;28;20038;-74
2023/05/24 00:47:09;;;;;;;11.98;4.15;;;;;;;;;;5027289;28;20373;-75
2023/05/24 00:49:35;;;;;;;21.60;3.75;;;;;;;;;;5019725;28;20026;-75
2023/05/24 00:52:01;;;;;;;16.02;3.80;;;;;;;;;;5011598;28;20034;-75
2023/05/24 00:54:28;;;;;;;13.95;4.00;;;;;;;;;;5011603;28;20544;-74
2023/05/24 00:56:54;;;;;;;19.10;4.15;;;;;;;;;;5026088;28;20024;-74
2023/05/24 00:59:20;;;;;;;13.15;3.72;;;;;;;;;;5014237;28;20489;-74
2023/05/24 01:01:46;;;;;;;17.42;4.93;;;;;;;;;;5025640;28;20476;-74
2023/05/24 01:04:13;;;;;;;14.30;3.90;;;;;;;;;;5020245;28;20131;-74
2023/05/24 01:07:03;;;;;;;21.27;4.63;;;;;;;;;;5019831;28;20029;-74
2023/05/24 01:09:33;;;;;;;15.88;4.90;;;;;;;;;;4999843;28;20612;-74
2023/05/24 01:12:19;;;;;;;16.20;4.63;;;;;;;;;;5018363;28;20029;-74
2023/05/24 01:15:09;;;;;;;21.38;4.20;;;;;;;;;;5031150;28;20030;-74
2023/05/24 01:17:36;;;;;;;15.95;3.42;;;;;;;;;;5014422;28;20087;-74
2023/05/24 01:20:10;;;;;;;15.95;3.90;;;;;;;;;;5022869;28;20021;-74
2023/05/24 01:22:54;;;;;;;17.73;5.18;;;;;;;;;;5018920;28;20042;-74
2023/05/24 01:25:26;;;;;;;23.52;5.28;;;;;;;;;;5011492;28;20029;-75
2023/05/24 01:27:52;;;;;;;19.65;4.32;;;;;;;;;;5015265;28;20112;-75
2023/05/24 01:30:19;;;;;;;15.95;4.50;;;;;;;;;;5020847;28;20060;-76
2023/05/24 01:32:45;;;;;;;12.10;3.97;;;;;;;;;;5017908;28;20084;-76
2023/05/24 01:35:11;;;;;;;16.65;4.05;;;;;;;;;;5027218;28;20032;-75
2023/05/24 01:37:37;;;;;;;14.70;4.75;;;;;;;;;;5014391;28;20553;-76
2023/05/24 01:40:03;;;;;;;16.67;4.80;;;;;;;;;;5023192;28;20041;-76
2023/05/24 01:42:36;;;;;;;15.75;3.60;;;;;;;;;;5022011;28;20029;-76
2023/05/24 01:45:05;;;;;;;12.40;3.45;;;;;;;;;;5015099;28;20570;-76
2023/05/24 01:47:31;;;;;;;14.75;3.92;;;;;;;;;;5026285;28;20108;-75
2023/05/24 01:49:59;;;;;;;15.80;4.47;;;;;;;;;;5019046;28;20445;-75
2023/05/24 01:52:28;;;;;;;14.48;3.13;;;;;;;;;;5010678;28;20030;-75
2023/05/24 01:54:56;;;;;;;19.52;3.75;;;;;;;;;;5011104;28;20025;-75
2023/05/24 01:57:22;;;;;;;18.90;3.63;;;;;;;;;;5026388;28;20096;-75
2023/05/24 01:59:50;;;;;;;14.80;3.47;;;;;;;;;;5016458;28;20013;-75
2023/05/24 02:02:16;;;;;;;11.75;3.28;;;;;;;;;;5021056;28;20484;-76
2023/05/24 02:04:42;;;;;;;16.27;3.92;;;;;;;;;;5023432;28;20029;-76
2023/05/24 02:07:08;;;;;;;14.93;4.03;;;;;;;;;;5013433;28;20030;-75
2023/05/24 02:09:34;;;;;;;18.17;4.15;;;;;;;;;;5026826;28;20022;-75
2023/05/24 02:12:01;;;;;;;16.73;4.13;;;;;;;;;;5017892;28;20036;-76
2023/05/24 02:14:27;;;;;;;17.55;4.25;;;;;;;;;;5019315;28;20496;-76
2023/05/24 02:16:57;;;;;;;15.00;3.50;;;;;;;;;;5024746;28;20569;-75
2023/05/24 02:19:23;;;;;;;20.90;4.18;;;;;;;;;;5019227;28;20017;-75
2023/05/24 02:21:50;;;;;;;14.88;3.60;;;;;;;;;;5010529;28;20514;-75
2023/05/24 02:24:17;;;;;;;17.02;3.53;;;;;;;;;;5010734;28;20038;-75
2023/05/24 02:26:43;;;;;;;11.43;3.30;;;;;;;;;;5011752;28;20034;-75
2023/05/24 02:29:09;;;;;;;17.67;4.00;;;;;;;;;;5013152;28;20029;-76
2023/05/24 02:31:35;;;;;;;18.88;4.25;;;;;;;;;;5026601;28;20060;-75
2023/05/24 02:34:02;;;;;;;20.63;4.22;;;;;;;;;;5017861;28;20026;-75
2023/05/24 02:36:28;;;;;;;14.52;3.40;;;;;;;;;;5021772;28;20516;-76
2023/05/24 02:38:55;;;;;;;13.68;3.20;;;;;;;;;;5028219;28;20404;-76
2023/05/24 02:41:21;;;;;;;14.43;3.03;;;;;;;;;;5017720;28;20395;-75
2023/05/24 02:43:47;;;;;;;18.92;4.53;;;;;;;;;;5028835;28;20357;-76
2023/05/24 02:46:13;;;;;;;15.88;3.30;;;;;;;;;;5023064;28;20057;-76
2023/05/24 02:48:40;;;;;;;14.45;3.13;;;;;;;;;;5023604;28;20033;-76
2023/05/24 02:51:06;;;;;;;17.15;3.83;;;;;;;;;;5033936;28;20017;-76
2023/05/24 02:53:32;;;;;;;17.08;3.85;;;;;;;;;;5013300;28;20026;-74
2023/05/24 02:55:58;;;;;;;16.60;4.05;;;;;;;;;;5022950;28;20014;-74
2023/05/24 02:58:27;;;;;;;16.45;3.40;;;;;;;;;;5011867;28;20022;-74
2023/05/24 03:00:54;;;;;;;10.75;3.55;;;;;;;;;;5033684;28;20020;-75
2023/05/24 03:03:20;;;;;;;20.92;4.55;;;;;;;;;;5031740;28;20099;-74
2023/05/24 03:05:46;;;;;;;12.27;4.07;;;;;;;;;;5019060;28;20021;-74
2023/05/24 03:08:12;;;;;;;16.65;4.13;;;;;;;;;;5024194;28;20022;-74
2023/05/24 03:10:38;;;;;;;15.98;4.13;;;;;;;;;;5023487;28;20030;-75
2023/05/24 03:13:04;;;;;;;13.68;3.58;;;;;;;;;;5029284;28;20048;-75
2023/05/24 03:15:30;;;;;;;16.05;3.92;;;;;;;;;;5016887;28;20026;-74
2023/05/24 03:17:56;;;;;;;15.02;3.60;;;;;;;;;;5008363;28;20022;-74
2023/05/24 03:20:23;;;;;;;15.10;3.88;;;;;;;;;;5023429;28;20471;-76
2023/05/24 03:22:49;;;;;;;15.70;4.13;;;;;;;;;;5019515;28;20053;-74
2023/05/24 03:25:15;;;;;;;17.13;4.28;;;;;;;;;;5029489;28;20391;-75
2023/05/24 03:27:41;;;;;;;19.90;4.45;;;;;;;;;;5012416;28;20058;-75
2023/05/24 03:30:08;;;;;;;14.82;4.57;;;;;;;;;;5021842;28;20056;-75
2023/05/24 03:32:34;;;;;;;19.92;5.05;;;;;;;;;;5021451;28;20026;-75
2023/05/24 03:35:00;;;;;;;16.50;4.00;;;;;;;;;;5028889;28;20032;-76
2023/05/24 03:37:27;;;;;;;17.63;3.67;;;;;;;;;;5016402;28;20048;-76
2023/05/24 03:39:53;;;;;;;18.20;3.85;;;;;;;;;;5027507;28;20116;-75
2023/05/24 03:42:20;;;;;;;17.70;4.10;;;;;;;;;;5013564;28;20109;-75
2023/05/24 03:44:46;;;;;;;15.05;4.00;;;;;;;;;;5014067;28;20052;-75
2023/05/24 03:47:12;;;;;;;13.50;3.72;;;;;;;;;;5013835;28;20121;-75
2023/05/24 03:49:38;;;;;;;17.63;3.80;;;;;;;;;;5026585;28;20052;-75
2023/05/24 03:52:04;;;;;;;18.92;3.78;;;;;;;;;;5020904;28;20117;-75
2023/05/24 03:54:30;;;;;;;11.85;3.50;;;;;;;;;;5023022;28;20022;-75
2023/05/24 03:56:56;;;;;;;17.58;4.28;;;;;;;;;;5018199;28;20045;-75
2023/05/24 03:59:22;;;;;;;16.92;3.70;;;;;;;;;;5020154;28;20041;-75
2023/05/24 04:01:48;;;;;;;11.75;3.38;;;;;;;;;;5014912;28;20501;-76
2023/05/24 04:04:14;;;;;;;14.20;3.70;;;;;;;;;;5023137;28;20165;-76
2023/05/24 04:06:40;;;;;;;21.02;4.13;;;;;;;;;;5025817;28;20104;-75
2023/05/24 04:09:08;;;;;;;17.88;4.25;;;;;;;;;;5015601;28;20109;-75
2023/05/24 04:11:35;;;;;;;11.57;3.33;;;;;;;;;;5028745;28;20084;-75
2023/05/24 04:14:01;;;;;;;15.32;3.72;;;;;;;;;;5002415;28;20063;-76
2023/05/24 04:16:27;;;;;;;17.92;3.75;;;;;;;;;;5021856;28;20084;-76
2023/05/24 04:18:56;;;;;;;14.60;3.10;;;;;;;;;;5008840;28;20025;-75
2023/05/24 04:21:23;;;;;;;18.83;3.92;;;;;;;;;;5015703;28;20018;-75
2023/05/24 04:23:49;;;;;;;12.85;3.03;;;;;;;;;;5026641;28;20018;-75
2023/05/24 04:26:16;;;;;;;14.73;3.65;;;;;;;;;;5021655;28;20033;-76
2023/05/24 04:28:42;;;;;;;20.85;3.65;;;;;;;;;;5000698;28;20116;-76
2023/05/24 04:31:08;;;;;;;11.75;3.38;;;;;;;;;;5012237;28;20025;-75
2023/05/24 04:33:35;;;;;;;18.63;3.90;;;;;;;;;;5029698;28;20032;-75
2023/05/24 04:36:02;;;;;;;18.17;4.10;;;;;;;;;;5024337;28;20045;-76
2023/05/24 04:38:33;;;;;;;15.93;3.75;;;;;;;;;;5010893;28;20414;-75
2023/05/24 04:40:59;;;;;;;16.08;4.72;;;;;;;;;;5012007;28;20101;-75
2023/05/24 04:43:25;;;;;;;12.88;3.20;;;;;;;;;;5009993;28;20029;-75
2023/05/24 04:45:53;;;;;;;15.63;4.07;;;;;;;;;;5011956;28;20030;-76
2023/05/24 04:48:20;;;;;;;16.02;4.18;;;;;;;;;;5020991;28;20490;-75
2023/05/24 04:50:46;;;;;;;21.58;4.10;;;;;;;;;;5018166;28;20048;-75
2023/05/24 04:53:13;;;;;;;20.75;4.43;;;;;;;;;;5028028;28;20057;-76
2023/05/24 04:55:39;;;;;;;16.45;4.35;;;;;;;;;;5015802;28;20025;-76
2023/05/24 04:58:05;;;;;;;15.13;3.75;;;;;;;;;;5022601;28;20380;-75
2023/05/24 05:00:31;;;;;;;15.77;3.47;;;;;;;;;;5023119;28;20017;-75
2023/05/24 05:02:57;;;;;;;14.80;3.38;;;;;;;;;;5018968;28;20014;-76
2023/05/24 05:05:23;;;;;;;18.35;3.10;;;;;;;;;;5011677;28;20057;-76
2023/05/24 05:07:49;;;;;;;17.15;4.15;;;;;;;;;;5015709;28;20099;-75
2023/05/24 05:10:15;;;;;;;15.05;3.78;;;;;;;;;;5021805;28;20026;-76
2023/05/24 05:12:41;;;;;;;16.42;3.95;;;;;;;;;;5021406;28;20453;-76
2023/05/24 05:15:08;;;;;;;13.85;3.83;;;;;;;;;;5019494;28;20025;-75
2023/05/24 05:17:34;;;;;;;16.88;4.25;;;;;;;;;;5020423;28;20026;-75
2023/05/24 05:20:00;;;;;;;15.57;3.50;;;;;;;;;;5028459;28;20480;-75
2023/05/24 05:22:26;;;;;;;13.88;3.35;;;;;;;;;;5022213;28;20037;-75
2023/05/24 05:24:52;;;;;;;12.68;4.25;;;;;;;;;;5021827;28;20395;-75
2023/05/24 05:27:18;;;;;;;16.75;3.97;;;;;;;;;;5018612;28;20479;-75
2023/05/24 05:29:44;;;;;;;11.25;3.85;;;;;;;;;;5018298;28;20017;-75
2023/05/24 05:32:10;;;;;;;14.75;3.80;;;;;;;;;;5021882;28;20061;-75
2023/05/24 05:34:36;;;;;;;16.73;3.75;;;;;;;;;;5009636;28;20495;-75
2023/05/24 05:37:02;;;;;;;17.67;4.10;;;;;;;;;;5006504;28;20522;-74
2023/05/24 05:39:30;;;;;;;20.00;4.15;;;;;;;;;;5012083;28;20056;-75
2023/05/24 05:41:56;;;;;;;12.85;3.72;;;;;;;;;;5022154;28;20080;-75
2023/05/24 05:44:22;;;;;;;20.90;4.50;;;;;;;;;;5019247;28;20025;-75
2023/05/24 05:46:48;;;;;;;18.55;4.13;;;;;;;;;;5015202;28;20107;-75
2023/05/24 05:49:17;;;;;;;15.32;4.10;;;;;;;;;;5025457;28;20523;-77
2023/05/24 05:51:43;;;;;;;13.93;4.35;;;;;;;;;;5015581;28;20028;-75
2023/05/24 05:54:13;;;;;;;15.27;4.10;;;;;;;;;;5004639;28;20432;-75
2023/05/24 05:56:44;;;;;;;17.50;3.58;;;;;;;;;;5023395;28;20025;-75
2023/05/24 05:59:10;;;;;;;17.60;4.10;;;;;;;;;;5013408;28;20030;-76
2023/05/24 06:01:36;;;;;;;16.17;4.15;;;;;;;;;;5026586;28;20018;-76
2023/05/24 06:04:02;;;;;;;12.52;3.30;;;;;;;;;;5018169;28;20017;-76
2023/05/24 06:06:28;;;;;;;13.50;3.35;;;;;;;;;;5001612;28;20109;-75
2023/05/24 06:08:54;;;;;;;12.15;3.55;;;;;;;;;;5009976;28;20429;-75
2023/05/24 06:11:20;;;;;;;11.75;3.65;;;;;;;;;;5028947;28;20033;-75
2023/05/24 06:13:46;;;;;;;13.80;3.53;;;;;;;;;;5019729;28;20237;-76
2023/05/24 06:16:13;;;;;;;15.25;3.53;;;;;;;;;;5025158;28;20034;-76
2023/05/24 06:18:39;;;;;;;14.00;3.92;;;;;;;;;;5026196;28;20029;-76
2023/05/24 06:21:09;;;;;;;14.70;4.05;;;;;;;;;;5017926;28;20493;-76
2023/05/24 06:23:35;;;;;;;14.60;3.70;;;;;;;;;;5018285;28;20388;-75
2023/05/24 06:26:01;;;;;;;10.85;3.53;;;;;;;;;;5026842;28;20017;-75
2023/05/24 06:28:27;;;;;;;11.68;3.50;;;;;;;;;;5013493;28;20026;-76
2023/05/24 06:30:53;;;;;;;13.00;3.50;;;;;;;;;;5028844;28;20112;-76
2023/05/24 06:33:19;;;;;;;15.30;3.53;;;;;;;;;;5015686;28;20030;-76
2023/05/24 06:35:45;;;;;;;21.98;4.80;;;;;;;;;;5001339;28;20025;-76
2023/05/24 06:38:11;;;;;;;18.17;4.43;;;;;;;;;;5024812;28;20022;-75
2023/05/24 06:40:37;;;;;;;17.55;4.15;;;;;;;;;;5026399;28;20484;-76
2023/05/24 06:43:04;;;;;;;19.30;5.10;;;;;;;;;;5017991;28;20026;-76
2023/05/24 06:45:30;;;;;;;18.70;4.20;;;;;;;;;;5030156;28;20025;-76
2023/05/24 06:47:56;;;;;;;16.75;3.78;;;;;;;;;;5020136;28;20104;-75
2023/05/24 06:50:22;;;;;;;14.05;4.03;;;;;;;;;;5023396;28;20113;-75
2023/05/24 06:52:48;;;;;;;12.15;3.83;;;;;;;;;;5027565;28;20061;-75
2023/05/24 06:55:14;;;;;;;12.27;3.97;;;;;;;;;;5016855;28;20056;-76
2023/05/24 06:57:40;;;;;;;14.65;4.03;;;;;;;;;;5028395;28;20013;-76
2023/05/24 07:00:10;;;;;;;19.80;5.22;;;;;;;;;;5021964;28;20025;-76
2023/05/24 07:02:37;;;;;;;13.93;3.60;;;;;;;;;;5021867;28;20034;-77
2023/05/24 07:05:03;;;;;;;14.90;3.67;;;;;;;;;;5068467;23;20093;-73
2023/05/24 07:07:29;;;;;;;17.15;4.30;;;;;;;;;;5068463;28;20044;-72
2023/05/24 07:09:55;;;;;;;17.05;4.32;;;;;;;;;;5057711;28;20103;-72
2023/05/24 07:12:22;;;;;;;11.38;2.97;;;;;;;;;;5059968;28;20451;-72
2023/05/24 07:14:48;;;;;;;16.05;4.22;;;;;;;;;;5056546;28;20055;-72
2023/05/24 07:17:14;;;;;;;14.95;3.80;;;;;;;;;;5053281;28;20056;-72
2023/05/24 07:19:42;;;;;;;16.48;4.00;;;;;;;;;;5051724;28;20096;-72
2023/05/24 07:22:08;;;;;;;15.18;4.07;;;;;;;;;;5051827;28;20096;-72
2023/05/24 07:24:35;;;;;;;13.98;4.43;;;;;;;;;;5052579;28;20172;-72
2023/05/24 07:27:01;;;;;;;19.70;4.95;;;;;;;;;;5038917;28;20071;-72
2023/05/24 07:29:27;;;;;;;20.35;4.63;;;;;;;;;;5067927;28;20024;-71
2023/05/24 07:31:55;;;;;;;15.23;4.53;;;;;;;;;;5052782;28;20036;-71
2023/05/24 07:34:26;;;;;;;13.20;4.30;;;;;;;;;;5052423;28;20028;-70
2023/05/24 07:36:52;;;;;;;22.52;4.95;;;;;;;;;;5052899;28;20489;-71
2023/05/24 07:39:18;;;;;;;25.63;5.90;;;;;;;;;;5048537;28;20025;-71
2023/05/24 07:41:44;;;;;;;16.45;4.55;;;;;;;;;;5052872;28;20062;-71
2023/05/24 07:44:10;;;;;;;16.92;4.93;;;;;;;;;;5052567;28;20053;-71
2023/05/24 07:46:37;;;;;;;12.27;4.03;;;;;;;;;;5052156;28;20506;-71
2023/05/24 07:49:03;;;;;;;17.50;4.38;;;;;;;;;;5051672;28;20025;-71
2023/05/24 07:51:29;;;;;;;16.27;4.07;;;;;;;;;;5050896;28;20016;-71
2023/05/24 07:53:56;;;;;;;14.23;4.25;;;;;;;;;;5037338;28;20433;-70
2023/05/24 07:56:22;;;;;;;18.77;4.50;;;;;;;;;;5052203;28;20023;-71
2023/05/24 07:58:50;;;;;;;14.68;4.57;;;;;;;;;;5051604;28;20075;-71
2023/05/24 08:01:17;;;;;;;18.23;4.38;;;;;;;;;;5051863;28;20513;-71
2023/05/24 08:03:43;;;;;;;23.50;4.10;;;;;;;;;;5052109;28;20106;-71
2023/05/24 08:06:10;;;;;;;13.45;3.50;;;;;;;;;;5039239;28;20033;-71
2023/05/24 08:08:36;;;;;;;19.08;4.88;;;;;;;;;;5051228;28;20103;-71
2023/05/24 08:11:02;;;;;;;19.50;5.15;;;;;;;;;;5051857;28;20484;-72
2023/05/24 08:13:28;;;;;;;25.45;4.97;;;;;;;;;;5051756;28;20040;-72
2023/05/24 08:15:54;;;;;;;16.80;5.13;;;;;;;;;;5051705;28;20028;-72
2023/05/24 08:18:20;;;;;;;14.27;4.30;;;;;;;;;;5039885;28;20045;-72
2023/05/24 08:20:46;;;;;;;16.38;4.55;;;;;;;;;;5057314;28;20033;-72
2023/05/24 08:23:12;;;;;;;16.30;4.25;;;;;;;;;;5036227;28;20028;-72
2023/05/24 08:25:39;;;;;;;17.73;4.03;;;;;;;;;;5048800;28;20024;-72
2023/05/24 08:28:06;;;;;;;14.38;4.22;;;;;;;;;;5036969;28;20104;-72
2023/05/24 08:30:32;;;;;;;12.43;3.78;;;;;;;;;;5051280;28;20029;-72
2023/05/24 08:32:58;;;;;;;17.42;4.10;;;;;;;;;;5043520;28;20032;-72
2023/05/24 08:35:24;;;;;;;15.93;4.53;;;;;;;;;;5051233;28;20025;-72
2023/05/24 08:37:50;;;;;;;13.65;3.70;;;;;;;;;;5050759;28;20021;-72
2023/05/24 08:40:17;;;;;;;13.30;3.50;;;;;;;;;;5050853;28;20021;-72
2023/05/24 08:42:44;;;;;;;19.55;4.55;;;;;;;;;;5040277;28;20541;-72
2023/05/24 08:45:11;;;;;;;15.32;5.28;;;;;;;;;;5046609;28;20033;-72
2023/05/24 08:47:38;;;;;;;16.77;4.47;;;;;;;;;;5050315;28;20131;-72
2023/05/24 08:50:05;;;;;;;14.20;3.92;;;;;;;;;;5051338;28;20487;-72
2023/05/24 08:52:31;;;;;;;16.05;3.90;;;;;;;;;;5051223;28;20445;-72
2023/05/24 08:55:03;;;;;;;16.95;4.55;;;;;;;;;;5050814;28;20056;-72
2023/05/24 08:57:31;;;;;;;17.42;4.70;;;;;;;;;;5050263;28;20017;-72
2023/05/24 08:59:58;;;;;;;16.77;5.05;;;;;;;;;;5050548;28;20021;-71
2023/05/24 09:02:24;;;;;;;14.70;4.63;;;;;;;;;;5050694;28;20103;-71
2023/05/24 09:04:51;;;;;;;19.83;5.10;;;;;;;;;;5051011;28;20021;-72
2023/05/24 09:07:18;;;;;;;14.55;4.70;;;;;;;;;;5050139;28;20045;-72
2023/05/24 09:09:51;;;;;;;14.60;4.40;;;;;;;;;;5051054;28;20079;-72
2023/05/24 09:12:20;;;;;;;18.83;4.68;;;;;;;;;;5050132;28;20025;-71
2023/05/24 09:14:46;;;;;;;13.50;4.00;;;;;;;;;;5049793;28;20438;-71
2023/05/24 09:17:16;;;;;;;13.30;4.85;;;;;;;;;;5049763;28;20024;-72
2023/05/24 09:19:44;;;;;;;13.73;4.95;;;;;;;;;;5050012;28;20022;-71
2023/05/24 09:22:12;;;;;;;14.90;4.93;;;;;;;;;;5050331;28;20082;-72
2023/05/24 09:24:42;;;;;;;17.13;4.70;;;;;;;;;;5041313;28;20124;-72
2023/05/24 09:27:08;;;;;;;12.48;4.60;;;;;;;;;;5049180;28;20056;-71
2023/05/24 09:29:37;;;;;;;11.70;4.53;;;;;;;;;;5048503;28;20075;-71
2023/05/24 09:32:03;;;;;;;10.38;3.88;;;;;;;;;;5036689;28;20684;-75
2023/05/24 09:34:37;;;;;;;12.85;4.50;;;;;;;;;;5050099;28;20443;-75
2023/05/24 09:37:12;;;;;;;11.43;4.35;;;;;;;;;;5050133;28;20040;-72
2023/05/24 09:39:41;;;;;;;16.50;5.25;;;;;;;;;;5018264;28;20467;-69
2023/05/24 09:42:07;;;;;;;11.82;4.10;;;;;;;;;;5052607;28;20037;-72
2023/05/24 09:44:33;;;;;;;16.45;4.70;;;;;;;;;;5055447;28;20028;-71
2023/05/24 09:47:03;;;;;;;15.90;5.00;;;;;;;;;;5041851;28;20513;-74
2023/05/24 09:49:30;;;;;;;17.55;5.43;;;;;;;;;;5052820;28;20017;-71
2023/05/24 09:51:56;;;;;;;16.83;4.93;;;;;;;;;;5054646;28;20025;-73
2023/05/24 09:54:25;;;;;;;21.42;5.78;;;;;;;;;;5054383;28;20449;-71
2023/05/24 09:56:52;;;;;;;17.70;5.22;;;;;;;;;;5055198;28;20092;-71
2023/05/24 09:59:18;;;;;;;17.13;5.43;;;;;;;;;;5050088;28;20112;-71
2023/05/24 10:01:45;;;;;;;15.25;5.00;;;;;;;;;;5053157;28;20100;-71
2023/05/24 10:04:12;;;;;;;14.07;4.95;;;;;;;;;;5053783;28;20039;-72
2023/05/24 10:06:41;;;;;;;15.02;4.80;;;;;;;;;;5052852;28;20021;-70
2023/05/24 10:09:08;;;;;;;14.90;4.40;;;;;;;;;;5053553;28;20045;-74
2023/05/24 10:11:38;;;;;;;13.60;4.57;;;;;;;;;;5020718;28;20017;-71
2023/05/24 10:14:07;;;;;;;14.40;4.60;;;;;;;;;;5054290;28;20021;-72
2023/05/24 10:16:33;;;;;;;13.48;4.40;;;;;;;;;;5052461;28;20021;-73
2023/05/24 10:18:59;;;;;;;14.40;4.60;;;;;;;;;;5051771;28;20490;-72
2023/05/24 10:21:28;;;;;;;14.65;4.53;;;;;;;;;;5051730;28;20028;-72
2023/05/24 10:23:57;;;;;;;13.85;4.35;;;;;;;;;;5052867;28;20025;-73
2023/05/24 10:26:27;;;;;;;15.93;4.90;;;;;;;;;;5054049;28;20029;-73
2023/05/24 10:28:57;;;;;;;13.07;4.57;;;;;;;;;;5051900;28;20017;-74
2023/05/24 10:31:25;;;;;;;14.90;4.30;;;;;;;;;;5037299;28;20717;-74
2023/05/24 10:33:51;;;;;;;16.73;4.50;;;;;;;;;;5053829;28;20479;-74
2023/05/24 10:36:18;;;;;;;16.90;5.13;;;;;;;;;;5053500;28;20561;-72
2023/05/24 10:38:47;;;;;;;15.43;4.85;;;;;;;;;;5052895;28;20078;-73
2023/05/24 10:41:14;;;;;;;11.68;4.32;;;;;;;;;;5053980;28;20021;-73
2023/05/24 10:43:40;;;;;;;14.77;4.40;;;;;;;;;;5053845;28;20562;-73
2023/05/24 10:46:08;;;;;;;13.90;4.90;;;;;;;;;;5047606;28;20029;-73
2023/05/24 10:48:35;;;;;;;11.55;4.32;;;;;;;;;;5043236;28;20024;-74
2023/05/24 10:51:22;;;;;;;10.15;4.53;;;;;;;;;;5040016;28;20123;-73
2023/05/24 10:53:50;;;;;;;17.20;5.18;;;;;;;;;;5014283;28;20033;-74
2023/05/24 10:56:16;;;;;;;18.63;5.32;;;;;;;;;;5041940;28;20057;-73
2023/05/24 10:58:58;;;;;;;15.48;4.82;;;;;;;;;;5052586;28;20056;-74
2023/05/24 11:01:25;;;;;;;;;;;;;;;;;;5051340;28;20105;-74
2023/05/24 11:03:51;;;;;;;16.40;4.93;;;;;;;;;;5053056;28;20522;-74
2023/05/24 11:06:17;;;;;;;11.88;3.92;;;;;;;;;;5052445;28;20380;-74
2023/05/24 11:08:43;;;;;;;16.52;4.20;;;;;;;;;;5051306;28;20041;-75
2023/05/24 11:11:10;;;;;;;16.05;4.70;;;;;;;;;;5051703;28;20029;-74
2023/05/24 11:13:37;;;;;;;17.25;4.47;;;;;;;;;;5051854;28;20029;-75
2023/05/24 11:16:04;;;;;;;15.90;4.65;;;;;;;;;;5048272;28;20025;-74
2023/05/24 11:18:30;;;;;;;10.68;4.07;;;;;;;;;;5049638;28;20047;-75
2023/05/24 11:20:56;;;;;;;16.13;4.32;;;;;;;;;;5050675;28;20384;-74
2023/05/24 11:23:22;;;;;;;13.52;3.78;;;;;;;;;;5034449;28;20025;-74
2023/05/24 11:25:48;;;;;;;13.63;3.92;;;;;;;;;;5053154;28;20414;-74
2023/05/24 11:28:15;;;;;;;15.25;4.50;;;;;;;;;;5052719;28;20021;-74
2023/05/24 11:30:41;;;;;;;14.02;4.22;;;;;;;;;;5053079;28;20036;-74
2023/05/24 11:33:24;;;;;;;15.13;4.50;;;;;;;;;;5051926;28;20021;-74
2023/05/24 11:35:51;;;;;;;12.75;3.92;;;;;;;;;;5053201;28;20368;-75
2023/05/24 11:38:17;;;;;;;11.10;4.03;;;;;;;;;;5037378;28;20044;-75
2023/05/24 11:40:44;;;;;;;12.38;4.22;;;;;;;;;;5052749;28;20071;-76
2023/05/24 11:43:17;;;;;;;16.80;4.72;;;;;;;;;;5052854;28;20033;-76
2023/05/24 11:45:47;;;;;;;14.60;5.45;;;;;;;;;;5052655;28;20414;-76
2023/05/24 11:48:23;;;;;;;12.95;4.60;;;;;;;;;;5052666;28;20033;-76
2023/05/24 11:50:55;;;;;;;13.80;4.88;;;;;;;;;;5053136;28;20036;-76
2023/05/24 11:53:33;;;;;;;16.45;5.47;;;;;;;;;;5055469;28;20049;-76
2023/05/24 11:55:59;;;;;;;19.45;4.70;;;;;;;;;;5056773;28;20028;-75
2023/05/24 11:58:49;;;;;;;14.30;4.65;;;;;;;;;;5053163;28;20017;-74
2023/05/24 12:01:26;;;;;;;18.73;4.78;;;;;;;;;;5052991;28;20109;-74
2023/05/24 12:03:53;;;;;;;13.02;4.22;;;;;;;;;;5052490;28;20025;-74
2023/05/24 12:06:21;;;;;;;18.35;5.05;;;;;;;;;;5052523;28;20037;-75
2023/05/24 12:08:48;;;;;;;15.68;5.15;;;;;;;;;;5049425;28;20051;-75
2023/05/24 12:11:16;;;;;;;15.55;4.35;;;;;;;;;;5043053;28;20028;-75
2023/05/24 12:13:45;;;;;;;15.52;5.85;;;;;;;;;;5051521;28;20025;-75
2023/05/24 12:16:15;;;;;;;18.73;4.65;;;;;;;;;;5050987;28;20104;-75
2023/05/24 12:18:41;;;;;;;12.13;3.83;;;;;;;;;;5051025;28;20032;-75
2023/05/24 12:21:13;;;;;;;14.85;4.80;;;;;;;;;;5052542;28;20021;-75
2023/05/24 12:23:43;;;;;;;19.55;4.78;;;;;;;;;;5052077;28;20025;-76
2023/05/24 12:26:10;;;;;;;;;;;;;;;;;;5051342;28;20499;-75
2023/05/24 12:28:38;;;;;;;19.50;5.20;;;;;;;;;;5051585;28;19915;-74
2023/05/24 12:31:04;;;;;;;13.90;4.45;;;;;;;;;;5052242;28;20021;-74
2023/05/24 12:33:30;;;;;;;22.02;5.00;;;;;;;;;;5052162;28;20371;-74
2023/05/24 12:36:06;;;;;;;23.25;5.40;;;;;;;;;;5050758;28;20037;-75
2023/05/24 12:38:32;;;;;;;19.92;5.78;;;;;;;;;;5051271;28;20020;-75
2023/05/24 12:40:59;;;;;;;22.05;6.00;;;;;;;;;;5051876;28;20032;-75
2023/05/24 12:43:26;;;;;;;16.75;4.38;;;;;;;;;;5050340;28;20037;-75
2023/05/24 12:45:51;;;;;;;12.57;4.40;;;;;;;;;;5054045;28;20487;-75
2023/05/24 12:48:18;;;;;;;19.42;5.03;;;;;;;;;;5054716;28;20027;-75
2023/05/24 12:50:44;;;;;;;16.65;4.65;;;;;;;;;;5041551;28;20100;-75
2023/05/24 12:53:10;;;;;;;17.38;4.72;;;;;;;;;;5051267;28;20091;-76
2023/05/24 12:55:36;;;;;;;17.10;5.10;;;;;;;;;;5051620;28;20020;-76
2023/05/24 12:58:05;;;;;;;16.42;5.18;;;;;;;;;;5050881;28;20036;-74
2023/05/24 13:00:31;;;;;;;14.00;5.25;;;;;;;;;;5051461;28;20053;-72
2023/05/24 13:02:58;;;;;;;22.85;4.97;;;;;;;;;;5051540;28;20029;-74
2023/05/24 13:05:26;;;;;;;18.17;5.13;;;;;;;;;;5033591;28;20044;-73
2023/05/24 13:07:52;;;;;;;15.70;5.63;;;;;;;;;;5062671;23;20411;-72
2023/05/24 13:10:18;;;;;;;17.58;5.70;;;;;;;;;;5051573;28;20021;-74
2023/05/24 13:12:44;;;;;;;19.60;5.15;;;;;;;;;;5051122;28;20452;-76
2023/05/24 13:15:11;;;;;;;18.63;5.22;;;;;;;;;;5051166;28;20497;-75
2023/05/24 13:17:37;;;;;;;14.02;4.72;;;;;;;;;;5050627;28;20047;-76
2023/05/24 13:20:05;;;;;;;15.57;4.90;;;;;;;;;;5051133;28;20486;-75
2023/05/24 13:22:32;;;;;;;19.17;5.22;;;;;;;;;;5051205;28;20025;-74
2023/05/24 13:24:57;;;;;;;16.65;4.88;;;;;;;;;;5051151;28;20506;-74
2023/05/24 13:27:23;;;;;;;15.98;5.13;;;;;;;;;;5050207;28;20040;-75
2023/05/24 13:29:49;;;;;;;20.58;4.88;;;;;;;;;;5051215;28;20028;-75
2023/05/24 13:32:16;;;;;;;21.35;4.88;;;;;;;;;;5044414;28;20499;-74
2023/05/24 13:34:42;;;;;;;17.98;5.10;;;;;;;;;;5030759;28;20026;-74
2023/05/24 13:37:08;;;;;;;20.30;5.45;;;;;;;;;;5030280;28;20021;-74
2023/05/24 13:39:34;;;;;;;16.45;5.18;;;;;;;;;;5039317;28;20244;-74
2023/05/24 13:42:00;;;;;;;17.63;5.60;;;;;;;;;;5050565;28;20022;-74
2023/05/24 13:44:27;;;;;;;21.65;5.60;;;;;;;;;;5037529;28;20032;-74
2023/05/24 13:46:55;;;;;;;18.95;4.60;;;;;;;;;;5045790;28;20039;-75
2023/05/24 13:49:21;;;;;;;15.65;4.63;;;;;;;;;;5052418;28;20491;-75
2023/05/24 13:51:48;;;;;;;15.50;5.18;;;;;;;;;;5059029;28;20029;-75
2023/05/24 13:54:15;;;;;;;16.60;5.03;;;;;;;;;;5035602;28;20502;-74
2023/05/24 13:56:43;;;;;;;18.20;4.75;;;;;;;;;;5031670;28;20163;-75
2023/05/24 13:59:10;;;;;;;17.27;5.38;;;;;;;;;;5012992;28;20472;-75
2023/05/24 14:01:36;;;;;;;12.50;4.38;;;;;;;;;;5031648;28;20029;-74
2023/05/24 14:04:03;;;;;;;15.40;4.53;;;;;;;;;;5030801;28;20479;-74
2023/05/24 14:06:29;;;;;;;15.60;5.00;;;;;;;;;;5048819;28;20120;-74
2023/05/24 14:08:56;;;;;;;11.30;4.47;;;;;;;;;;5032394;28;20017;-75
2023/05/24 14:11:23;;;;;;;13.82;4.72;;;;;;;;;;5031041;28;20108;-74
2023/05/24 14:13:49;;;;;;;15.25;5.10;;;;;;;;;;5012751;28;20026;-74
2023/05/24 14:16:15;;;;;;;13.40;4.68;;;;;;;;;;5030701;28;20029;-74
2023/05/24 14:18:42;;;;;;;14.27;4.03;;;;;;;;;;5029929;28;20490;-74
2023/05/24 14:21:08;;;;;;;17.75;5.05;;;;;;;;;;5030655;28;20491;-75
2023/05/24 14:23:34;;;;;;;16.33;4.68;;;;;;;;;;5029258;28;20116;-76
2023/05/24 14:26:00;;;;;;;16.48;4.70;;;;;;;;;;5028823;28;20030;-75
2023/05/24 14:28:26;;;;;;;13.38;4.88;;;;;;;;;;5028153;28;20056;-75
2023/05/24 14:30:52;;;;;;;18.85;5.22;;;;;;;;;;5029128;28;20420;-75